sensor_id;sensor_type;location;lat;lon;timestamp;pressure;altitude;pressure_sealevel;temperature;humidity
4410;BME280;2218;51.408;7.208;2022-08-19T00:00:38;99509.00;;;26.05;51.62
4410;BME280;2218;51.408;7.208;2022-08-19T00:03:06;99509.16;;;26.03;51.04
4410;BME280;2218;51.408;7.208;2022-08-19T00:05:34;99508.16;;;26.04;51.35
4410;BME280;2218;51.408;7.208;2022-08-19T00:08:02;99511.84;;;26.03;51.11
4410;BME280;2218;51.408;7.208;2022-08-19T00:10:30;99510.00;;;26.04;51.48
4410;BME280;2218;51.408;7.208;2022-08-19T00:12:56;99511.84;;;26.03;51.03
4410;BME280;2218;51.408;7.208;2022-08-19T00:15:23;99511.84;;;26.03;51.43
4410;BME280;2218;51.408;7.208;2022-08-19T00:17:50;99517.16;;;26.03;51.32
4410;BME280;2218;51.408;7.208;2022-08-19T00:20:20;99514.50;;;26.03;51.37
4410;BME280;2218;51.408;7.208;2022-08-19T00:22:47;99508.34;;;26.03;51.56
4410;BME280;2218;51.408;7.208;2022-08-19T00:25:16;99516.31;;;26.03;51.62
4410;BME280;2218;51.408;7.208;2022-08-19T00:27:43;99519.16;;;26.01;51.53
4410;BME280;2218;51.408;7.208;2022-08-19T00:30:12;99519.16;;;26.01;51.41
4410;BME280;2218;51.408;7.208;2022-08-19T00:32:39;99523.47;;;26.02;51.42
4410;BME280;2218;51.408;7.208;2022-08-19T00:35:08;99519.16;;;26.01;51.41
4410;BME280;2218;51.408;7.208;2022-08-19T00:37:35;99518.31;;;26.01;51.64
4410;BME280;2218;51.408;7.208;2022-08-19T00:40:05;99513.00;;;26.01;51.66
4410;BME280;2218;51.408;7.208;2022-08-19T00:42:34;99520.00;;;26.02;51.58
4410;BME280;2218;51.408;7.208;2022-08-19T00:45:02;99513.97;;;26.00;51.06
4410;BME280;2218;51.408;7.208;2022-08-19T00:47:29;99511.28;;;26.00;51.34
4410;BME280;2218;51.408;7.208;2022-08-19T00:49:58;99511.28;;;26.00;51.49
4410;BME280;2218;51.408;7.208;2022-08-19T00:52:30;99507.81;;;25.99;51.44
4410;BME280;2218;51.408;7.208;2022-08-19T00:55:00;99510.47;;;25.99;51.70
4410;BME280;2218;51.408;7.208;2022-08-19T00:57:33;99508.63;;;26.00;51.13
4410;BME280;2218;51.408;7.208;2022-08-19T01:00:10;99509.63;;;25.99;51.11
4410;BME280;2218;51.408;7.208;2022-08-19T01:02:39;99505.13;;;25.99;51.72
4410;BME280;2218;51.408;7.208;2022-08-19T01:05:12;99500.81;;;25.98;51.13
4410;BME280;2218;51.408;7.208;2022-08-19T01:07:41;99498.16;;;25.98;51.66
4410;BME280;2218;51.408;7.208;2022-08-19T01:10:14;99491.00;;;25.99;51.28
4410;BME280;2218;51.408;7.208;2022-08-19T01:12:42;99508.81;;;25.98;51.64
4410;BME280;2218;51.408;7.208;2022-08-19T01:15:14;99507.13;;;25.97;51.64
4410;BME280;2218;51.408;7.208;2022-08-19T01:17:44;99496.47;;;25.97;51.32
4410;BME280;2218;51.408;7.208;2022-08-19T01:20:15;99507.13;;;25.97;51.46
4410;BME280;2218;51.408;7.208;2022-08-19T01:22:49;99506.31;;;25.97;51.59
4410;BME280;2218;51.408;7.208;2022-08-19T01:25:22;99508.13;;;25.96;51.41
4410;BME280;2218;51.408;7.208;2022-08-19T01:27:52;99506.44;;;25.95;51.55
4410;BME280;2218;51.408;7.208;2022-08-19T01:30:25;99504.63;;;25.96;51.47
4410;BME280;2218;51.408;7.208;2022-08-19T01:32:54;99509.09;;;25.95;51.83
4410;BME280;2218;51.408;7.208;2022-08-19T01:35:23;99503.78;;;25.95;51.74
4410;BME280;2218;51.408;7.208;2022-08-19T01:37:56;99490.47;;;25.95;51.24
4410;BME280;2218;51.408;7.208;2022-08-19T01:40:27;99487.13;;;25.93;51.20
4410;BME280;2218;51.408;7.208;2022-08-19T01:42:55;99487.97;;;25.94;51.47
4410;BME280;2218;51.408;7.208;2022-08-19T01:45:26;99494.13;;;25.94;51.52
4410;BME280;2218;51.408;7.208;2022-08-19T01:47:54;99495.13;;;25.93;51.56
4410;BME280;2218;51.408;7.208;2022-08-19T01:50:22;99490.78;;;25.92;51.25
4410;BME280;2218;51.408;7.208;2022-08-19T01:52:49;99493.44;;;25.92;51.61
4410;BME280;2218;51.408;7.208;2022-08-19T01:55:21;99501.44;;;25.92;51.33
4410;BME280;2218;51.408;7.208;2022-08-19T01:57:54;99499.59;;;25.93;51.20
4410;BME280;2218;51.408;7.208;2022-08-19T02:00:25;99493.44;;;25.92;51.12
4410;BME280;2218;51.408;7.208;2022-08-19T02:02:52;99494.28;;;25.93;51.51
4410;BME280;2218;51.408;7.208;2022-08-19T02:05:20;99497.09;;;25.91;51.63
4410;BME280;2218;51.408;7.208;2022-08-19T02:07:48;99491.09;;;25.89;51.31
4410;BME280;2218;51.408;7.208;2022-08-19T02:10:21;99483.09;;;25.89;51.78
4410;BME280;2218;51.408;7.208;2022-08-19T02:12:48;99484.75;;;25.90;51.59
4410;BME280;2218;51.408;7.208;2022-08-19T02:15:16;99475.09;;;25.89;51.56
4410;BME280;2218;51.408;7.208;2022-08-19T02:17:45;99470.63;;;25.90;51.25
4410;BME280;2218;51.408;7.208;2022-08-19T02:20:13;99467.94;;;25.90;51.74
4410;BME280;2218;51.408;7.208;2022-08-19T02:22:41;99472.44;;;25.89;51.35
4410;BME280;2218;51.408;7.208;2022-08-19T02:25:10;99476.94;;;25.89;51.59
4410;BME280;2218;51.408;7.208;2022-08-19T02:27:40;99481.44;;;25.88;51.63
4410;BME280;2218;51.408;7.208;2022-08-19T02:30:11;99489.41;;;25.88;51.28
4410;BME280;2218;51.408;7.208;2022-08-19T02:32:39;99494.75;;;25.88;51.65
4410;BME280;2218;51.408;7.208;2022-08-19T02:35:08;99494.75;;;25.88;51.22
4410;BME280;2218;51.408;7.208;2022-08-19T02:37:35;99495.75;;;25.87;51.72
4410;BME280;2218;51.408;7.208;2022-08-19T02:40:19;99486.75;;;25.88;51.76
4410;BME280;2218;51.408;7.208;2022-08-19T02:42:48;99485.91;;;25.88;51.52
4410;BME280;2218;51.408;7.208;2022-08-19T02:45:16;99490.41;;;25.87;51.67
4410;BME280;2218;51.408;7.208;2022-08-19T02:47:43;99484.25;;;25.87;51.71
4410;BME280;2218;51.408;7.208;2022-08-19T02:50:10;99488.75;;;25.86;51.56
4410;BME280;2218;51.408;7.208;2022-08-19T02:52:38;99484.38;;;25.85;51.49
4410;BME280;2218;51.408;7.208;2022-08-19T02:55:07;99484.38;;;25.85;51.63
4410;BME280;2218;51.408;7.208;2022-08-19T02:57:34;99485.22;;;25.86;51.31
4410;BME280;2218;51.408;7.208;2022-08-19T03:00:05;99490.53;;;25.86;51.68
4410;BME280;2218;51.408;7.208;2022-08-19T03:02:34;99477.41;;;25.84;51.66
4410;BME280;2218;51.408;7.208;2022-08-19T03:05:03;99484.38;;;25.85;51.55
4410;BME280;2218;51.408;7.208;2022-08-19T03:07:30;99487.06;;;25.85;51.46
4410;BME280;2218;51.408;7.208;2022-08-19T03:09:57;99491.53;;;25.85;51.13
4410;BME280;2218;51.408;7.208;2022-08-19T03:12:24;99495.88;;;25.86;51.07
4410;BME280;2218;51.408;7.208;2022-08-19T03:14:51;99492.38;;;25.85;51.38
4410;BME280;2218;51.408;7.208;2022-08-19T03:17:20;99497.69;;;25.85;51.38
4410;BME280;2218;51.408;7.208;2022-08-19T03:19:47;99493.38;;;25.84;51.37
4410;BME280;2218;51.408;7.208;2022-08-19T03:22:14;99491.53;;;25.85;51.27
4410;BME280;2218;51.408;7.208;2022-08-19T03:24:41;99492.38;;;25.85;51.61
4410;BME280;2218;51.408;7.208;2022-08-19T03:27:09;99489.03;;;25.83;51.75
4410;BME280;2218;51.408;7.208;2022-08-19T03:29:37;99494.38;;;25.83;51.61
4410;BME280;2218;51.408;7.208;2022-08-19T03:32:06;99489.03;;;25.83;51.31
4410;BME280;2218;51.408;7.208;2022-08-19T03:34:37;99495.19;;;25.84;51.17
4410;BME280;2218;51.408;7.208;2022-08-19T03:37:07;99483.72;;;25.83;51.33
4410;BME280;2218;51.408;7.208;2022-08-19T03:39:36;99485.56;;;25.83;51.67
4410;BME280;2218;51.408;7.208;2022-08-19T03:42:04;99479.41;;;25.82;51.25
4410;BME280;2218;51.408;7.208;2022-08-19T03:44:32;99479.41;;;25.82;51.55
4410;BME280;2218;51.408;7.208;2022-08-19T03:46:59;99490.03;;;25.82;51.62
4410;BME280;2218;51.408;7.208;2022-08-19T03:49:30;99491.88;;;25.82;51.15
4410;BME280;2218;51.408;7.208;2022-08-19T03:51:59;99495.38;;;25.82;51.36
4410;BME280;2218;51.408;7.208;2022-08-19T03:54:28;99490.34;;;25.79;51.75
4410;BME280;2218;51.408;7.208;2022-08-19T03:56:56;99494.66;;;25.80;51.41
4410;BME280;2218;51.408;7.208;2022-08-19T03:59:28;99492.84;;;25.81;51.56
4410;BME280;2218;51.408;7.208;2022-08-19T04:01:58;99502.66;;;25.80;51.74
4410;BME280;2218;51.408;7.208;2022-08-19T04:04:26;99510.63;;;25.80;51.77
4410;BME280;2218;51.408;7.208;2022-08-19T04:06:54;99501.81;;;25.80;51.33
4410;BME280;2218;51.408;7.208;2022-08-19T04:09:24;99503.66;;;25.79;51.53
4410;BME280;2218;51.408;7.208;2022-08-19T04:11:57;99497.50;;;25.78;51.65
4410;BME280;2218;51.408;7.208;2022-08-19T04:14:27;99501.97;;;25.78;51.71
4410;BME280;2218;51.408;7.208;2022-08-19T04:16:56;99501.16;;;25.77;51.32
4410;BME280;2218;51.408;7.208;2022-08-19T04:19:24;99501.97;;;25.78;51.71
4410;BME280;2218;51.408;7.208;2022-08-19T04:21:53;99507.31;;;25.78;51.72
4410;BME280;2218;51.408;7.208;2022-08-19T04:24:22;99500.31;;;25.77;51.45
4410;BME280;2218;51.408;7.208;2022-08-19T04:26:50;99503.66;;;25.79;51.46
4410;BME280;2218;51.408;7.208;2022-08-19T04:29:20;99508.13;;;25.78;51.13
4410;BME280;2218;51.408;7.208;2022-08-19T04:31:51;99501.31;;;25.76;51.37
4410;BME280;2218;51.408;7.208;2022-08-19T04:34:23;99512.78;;;25.76;51.39
4410;BME280;2218;51.408;7.208;2022-08-19T04:36:53;99518.94;;;25.77;51.32
4410;BME280;2218;51.408;7.208;2022-08-19T04:39:26;99518.94;;;25.77;51.43
4410;BME280;2218;51.408;7.208;2022-08-19T04:42:15;99519.94;;;25.76;51.52
4410;BME280;2218;51.408;7.208;2022-08-19T04:44:59;99526.94;;;25.77;51.45
4410;BME280;2218;51.408;7.208;2022-08-19T04:47:28;99525.28;;;25.76;51.03
4410;BME280;2218;51.408;7.208;2022-08-19T04:49:57;99534.09;;;25.76;51.26
4410;BME280;2218;51.408;7.208;2022-08-19T04:52:24;99533.25;;;25.76;51.41
4410;BME280;2218;51.408;7.208;2022-08-19T04:54:52;99526.22;;;25.75;51.36
4410;BME280;2218;51.408;7.208;2022-08-19T04:57:21;99527.06;;;25.75;51.44
4410;BME280;2218;51.408;7.208;2022-08-19T04:59:48;99530.59;;;25.76;51.59
4410;BME280;2218;51.408;7.208;2022-08-19T05:02:15;99537.59;;;25.77;51.51
4410;BME280;2218;51.408;7.208;2022-08-19T05:04:42;99541.25;;;25.76;51.40
4410;BME280;2218;51.408;7.208;2022-08-19T05:07:09;99542.91;;;25.77;50.84
4410;BME280;2218;51.408;7.208;2022-08-19T05:09:36;99528.91;;;25.75;51.25
4410;BME280;2218;51.408;7.208;2022-08-19T05:12:05;99544.88;;;25.75;51.10
4410;BME280;2218;51.408;7.208;2022-08-19T05:14:32;99542.91;;;25.77;51.52
4410;BME280;2218;51.408;7.208;2022-08-19T05:17:01;99542.91;;;25.77;51.39
4410;BME280;2218;51.408;7.208;2022-08-19T05:19:28;99545.56;;;25.77;51.13
4410;BME280;2218;51.408;7.208;2022-08-19T05:22:13;99543.75;;;25.77;51.54
4410;BME280;2218;51.408;7.208;2022-08-19T05:25:04;99541.06;;;25.77;51.25
4410;BME280;2218;51.408;7.208;2022-08-19T05:27:33;99539.25;;;25.78;51.58
4410;BME280;2218;51.408;7.208;2022-08-19T05:30:01;99542.91;;;25.77;51.09
4410;BME280;2218;51.408;7.208;2022-08-19T05:32:28;99540.75;;;25.81;51.12
4410;BME280;2218;51.408;7.208;2022-08-19T05:34:55;99537.78;;;25.84;51.09
4410;BME280;2218;51.408;7.208;2022-08-19T05:37:22;99536.97;;;25.83;51.21
4410;BME280;2218;51.408;7.208;2022-08-19T05:39:52;99543.78;;;25.86;50.94
4410;BME280;2218;51.408;7.208;2022-08-19T05:42:20;99539.16;;;25.88;51.17
4410;BME280;2218;51.408;7.208;2022-08-19T05:44:50;99538.53;;;25.94;50.94
4410;BME280;2218;51.408;7.208;2022-08-19T05:47:18;99539.75;;;25.99;50.52
4410;BME280;2218;51.408;7.208;2022-08-19T05:49:46;99539.28;;;26.04;50.65
4410;BME280;2218;51.408;7.208;2022-08-19T05:52:16;99543.16;;;26.10;50.58
4410;BME280;2218;51.408;7.208;2022-08-19T05:54:43;99540.22;;;26.13;50.56
4410;BME280;2218;51.408;7.208;2022-08-19T05:57:14;99544.25;;;26.17;50.53
4410;BME280;2218;51.408;7.208;2022-08-19T05:59:41;99539.41;;;26.20;50.33
4410;BME280;2218;51.408;7.208;2022-08-19T06:02:09;99545.28;;;26.24;50.30
4410;BME280;2218;51.408;7.208;2022-08-19T06:04:36;99541.78;;;26.23;50.04
4410;BME280;2218;51.408;7.208;2022-08-19T06:07:05;99529.63;;;26.21;49.81
4410;BME280;2218;51.408;7.208;2022-08-19T06:09:31;99539.75;;;26.17;49.52
4410;BME280;2218;51.408;7.208;2022-08-19T06:11:59;99547.91;;;26.16;49.84
4410;BME280;2218;51.408;7.208;2022-08-19T06:14:31;99541.88;;;26.14;50.52
4410;BME280;2218;51.408;7.208;2022-08-19T06:17:00;99544.53;;;26.14;50.40
4410;BME280;2218;51.408;7.208;2022-08-19T06:19:30;99545.91;;;26.18;50.36
4410;BME280;2218;51.408;7.208;2022-08-19T06:21:59;99533.41;;;26.18;50.56
4410;BME280;2218;51.408;7.208;2022-08-19T06:24:29;99545.59;;;26.21;50.62
4410;BME280;2218;51.408;7.208;2022-08-19T06:26:59;99541.63;;;26.25;50.18
4410;BME280;2218;51.408;7.208;2022-08-19T06:29:27;99543.97;;;26.28;50.35
4410;BME280;2218;51.408;7.208;2022-08-19T06:31:58;99537.66;;;26.29;50.21
4410;BME280;2218;51.408;7.208;2022-08-19T06:34:29;99542.69;;;26.32;50.56
4410;BME280;2218;51.408;7.208;2022-08-19T06:36:59;99528.19;;;26.35;50.53
4410;BME280;2218;51.408;7.208;2022-08-19T06:39:30;99537.88;;;26.36;50.35
4410;BME280;2218;51.408;7.208;2022-08-19T06:42:00;99535.06;;;26.37;50.67
4410;BME280;2218;51.408;7.208;2022-08-19T06:44:31;99536.72;;;26.38;50.12
4410;BME280;2218;51.408;7.208;2022-08-19T06:47:01;99539.38;;;26.38;50.59
4410;BME280;2218;51.408;7.208;2022-08-19T06:49:30;99544.53;;;26.40;50.70
4410;BME280;2218;51.408;7.208;2022-08-19T06:51:58;99539.38;;;26.38;50.42
4410;BME280;2218;51.408;7.208;2022-08-19T06:54:27;99540.38;;;26.37;50.97
4410;BME280;2218;51.408;7.208;2022-08-19T06:56:55;99544.88;;;26.37;50.73
4410;BME280;2218;51.408;7.208;2022-08-19T06:59:24;99543.34;;;26.34;51.54
4410;BME280;2218;51.408;7.208;2022-08-19T07:01:55;99545.72;;;26.37;51.13
4410;BME280;2218;51.408;7.208;2022-08-19T07:04:26;99544.72;;;26.38;50.96
4410;BME280;2218;51.408;7.208;2022-08-19T07:07:00;99546.72;;;26.36;51.73
4410;BME280;2218;51.408;7.208;2022-08-19T07:09:28;99546.72;;;26.36;51.02
4410;BME280;2218;51.408;7.208;2022-08-19T07:11:56;99550.88;;;26.39;50.99
4410;BME280;2218;51.408;7.208;2022-08-19T07:14:26;99550.34;;;26.35;51.37
4410;BME280;2218;51.408;7.208;2022-08-19T07:16:56;99547.84;;;26.34;51.69
4410;BME280;2218;51.408;7.208;2022-08-19T07:19:25;99554.53;;;26.38;51.67
4410;BME280;2218;51.408;7.208;2022-08-19T07:21:54;99554.38;;;26.39;51.67
4410;BME280;2218;51.408;7.208;2022-08-19T07:24:25;99550.72;;;26.40;51.44
4410;BME280;2218;51.408;7.208;2022-08-19T07:26:56;99557.59;;;26.43;51.84
4410;BME280;2218;51.408;7.208;2022-08-19T07:29:28;99557.72;;;26.41;51.65
4410;BME280;2218;51.408;7.208;2022-08-19T07:31:57;99561.94;;;26.44;51.55
4410;BME280;2218;51.408;7.208;2022-08-19T07:34:25;99566.97;;;26.47;51.18
4410;BME280;2218;51.408;7.208;2022-08-19T07:36:53;99573.41;;;26.44;51.09
4410;BME280;2218;51.408;7.208;2022-08-19T07:39:25;99575.41;;;26.42;51.83
4410;BME280;2218;51.408;7.208;2022-08-19T07:41:53;99575.25;;;26.44;51.18
4410;BME280;2218;51.408;7.208;2022-08-19T07:44:21;99573.28;;;26.46;51.48
4410;BME280;2218;51.408;7.208;2022-08-19T07:46:52;99582.13;;;26.46;51.31
4410;BME280;2218;51.408;7.208;2022-08-19T07:49:20;99578.44;;;26.47;51.55
4410;BME280;2218;51.408;7.208;2022-08-19T07:51:50;99587.13;;;26.49;51.27
4410;BME280;2218;51.408;7.208;2022-08-19T07:54:22;99585.44;;;26.48;51.51
4410;BME280;2218;51.408;7.208;2022-08-19T07:56:49;99594.09;;;26.50;50.64
4410;BME280;2218;51.408;7.208;2022-08-19T07:59:17;99588.78;;;26.50;50.99
4410;BME280;2218;51.408;7.208;2022-08-19T08:01:44;99590.59;;;26.50;51.23
4410;BME280;2218;51.408;7.208;2022-08-19T08:04:12;99596.94;;;26.49;51.08
4410;BME280;2218;51.408;7.208;2022-08-19T08:06:56;99610.06;;;26.42;52.10
4410;BME280;2218;51.408;7.208;2022-08-19T08:09:43;99609.94;;;26.34;52.34
4410;BME280;2218;51.408;7.208;2022-08-19T08:12:13;99610.13;;;26.33;52.74
4410;BME280;2218;51.408;7.208;2022-08-19T08:14:46;99613.25;;;26.28;52.64
4410;BME280;2218;51.408;7.208;2022-08-19T08:17:16;99615.28;;;26.34;52.48
4410;BME280;2218;51.408;7.208;2022-08-19T08:19:45;99621.22;;;26.28;52.68
4410;BME280;2218;51.408;7.208;2022-08-19T08:22:16;99625.66;;;26.37;52.79
4410;BME280;2218;51.408;7.208;2022-08-19T08:25:05;99618.28;;;26.31;52.79
4410;BME280;2218;51.408;7.208;2022-08-19T08:27:35;99625.94;;;26.34;52.64
4410;BME280;2218;51.408;7.208;2022-08-19T08:30:06;99620.41;;;26.27;52.70
4410;BME280;2218;51.408;7.208;2022-08-19T08:32:35;99624.09;;;26.35;52.66
4410;BME280;2218;51.408;7.208;2022-08-19T08:35:04;99623.97;;;26.36;52.56
4410;BME280;2218;51.408;7.208;2022-08-19T08:37:31;99625.66;;;26.37;52.24
4410;BME280;2218;51.408;7.208;2022-08-19T08:39:58;99624.34;;;26.41;51.94
4410;BME280;2218;51.408;7.208;2022-08-19T08:42:32;99627.00;;;26.41;51.96
4410;BME280;2218;51.408;7.208;2022-08-19T08:45:05;99623.38;;;26.42;52.28
4410;BME280;2218;51.408;7.208;2022-08-19T08:47:40;99622.09;;;26.46;52.33
4410;BME280;2218;51.408;7.208;2022-08-19T08:50:15;99621.38;;;26.44;51.94
4410;BME280;2218;51.408;7.208;2022-08-19T08:52:47;99627.25;;;26.48;52.40
4410;BME280;2218;51.408;7.208;2022-08-19T08:55:21;99621.09;;;26.47;52.34
4410;BME280;2218;51.408;7.208;2022-08-19T08:57:57;99624.41;;;26.49;52.53
4410;BME280;2218;51.408;7.208;2022-08-19T09:00:29;99622.75;;;26.48;52.08
4410;BME280;2218;51.408;7.208;2022-08-19T09:03:00;99623.75;;;26.47;52.01
4410;BME280;2218;51.408;7.208;2022-08-19T09:05:42;99613.25;;;26.46;52.29
4410;BME280;2218;51.408;7.208;2022-08-19T09:08:25;99615.75;;;26.47;52.47
4410;BME280;2218;51.408;7.208;2022-08-19T09:10:56;99614.75;;;26.48;52.24
4410;BME280;2218;51.408;7.208;2022-08-19T09:13:35;99615.59;;;26.49;52.16
4410;BME280;2218;51.408;7.208;2022-08-19T09:16:09;99615.44;;;26.50;52.38
4410;BME280;2218;51.408;7.208;2022-08-19T09:18:41;99617.78;;;26.53;52.15
4410;BME280;2218;51.408;7.208;2022-08-19T09:21:09;99619.78;;;26.51;51.43
4410;BME280;2218;51.408;7.208;2022-08-19T09:23:36;99617.13;;;26.51;51.66
4410;BME280;2218;51.408;7.208;2022-08-19T09:26:08;99611.09;;;26.49;51.26
4410;BME280;2218;51.408;7.208;2022-08-19T09:28:37;99616.44;;;26.49;50.18
4410;BME280;2218;51.408;7.208;2022-08-19T09:31:04;99618.78;;;26.52;50.31
4410;BME280;2218;51.408;7.208;2022-08-19T09:33:31;99615.13;;;26.53;49.92
4410;BME280;2218;51.408;7.208;2022-08-19T09:36:09;99614.84;;;26.57;50.47
4410;BME280;2218;51.408;7.208;2022-08-19T09:38:37;99613.16;;;26.56;51.12
4410;BME280;2218;51.408;7.208;2022-08-19T09:41:08;99619.78;;;26.51;51.17
4410;BME280;2218;51.408;7.208;2022-08-19T09:43:40;99608.44;;;26.49;51.36
4410;BME280;2218;51.408;7.208;2022-08-19T09:46:08;99615.44;;;26.50;51.16
4410;BME280;2218;51.408;7.208;2022-08-19T09:48:36;99614.59;;;26.50;51.30
4410;BME280;2218;51.408;7.208;2022-08-19T09:51:05;99615.13;;;26.53;51.05
4410;BME280;2218;51.408;7.208;2022-08-19T09:53:34;99610.63;;;26.54;51.34
4410;BME280;2218;51.408;7.208;2022-08-19T09:56:01;99609.81;;;26.53;50.58
4410;BME280;2218;51.408;7.208;2022-08-19T09:58:28;99606.97;;;26.55;50.95
4410;BME280;2218;51.408;7.208;2022-08-19T10:00:58;99617.63;;;26.55;50.96
4410;BME280;2218;51.408;7.208;2022-08-19T10:03:27;99618.63;;;26.54;51.40
4410;BME280;2218;51.408;7.208;2022-08-19T10:06:01;99615.97;;;26.54;50.79
4410;BME280;2218;51.408;7.208;2022-08-19T10:08:33;99622.97;;;26.55;51.35
4410;BME280;2218;51.408;7.208;2022-08-19T10:11:03;99606.13;;;26.54;50.98
4410;BME280;2218;51.408;7.208;2022-08-19T10:13:32;99610.63;;;26.54;51.06
4410;BME280;2218;51.408;7.208;2022-08-19T10:16:06;99609.63;;;26.55;50.91
4410;BME280;2218;51.408;7.208;2022-08-19T10:18:35;99601.81;;;26.53;51.74
4410;BME280;2218;51.408;7.208;2022-08-19T10:21:06;99609.81;;;26.53;51.18
4410;BME280;2218;51.408;7.208;2022-08-19T10:23:38;99605.47;;;26.52;51.68
4410;BME280;2218;51.408;7.208;2022-08-19T10:26:06;99605.47;;;26.52;51.36
4410;BME280;2218;51.408;7.208;2022-08-19T10:28:34;99608.13;;;26.52;51.15
4410;BME280;2218;51.408;7.208;2022-08-19T10:31:10;99598.31;;;26.53;51.73
4410;BME280;2218;51.408;7.208;2022-08-19T10:33:38;99607.31;;;26.52;51.94
4410;BME280;2218;51.408;7.208;2022-08-19T10:36:09;99602.81;;;26.52;51.87
4410;BME280;2218;51.408;7.208;2022-08-19T10:38:37;99605.63;;;26.51;51.28
4410;BME280;2218;51.408;7.208;2022-08-19T10:41:11;99610.09;;;26.50;51.65
4410;BME280;2218;51.408;7.208;2022-08-19T10:43:39;99604.78;;;26.50;51.71
4410;BME280;2218;51.408;7.208;2022-08-19T10:46:10;99606.47;;;26.51;51.43
4410;BME280;2218;51.408;7.208;2022-08-19T10:48:37;99605.63;;;26.51;51.11
4410;BME280;2218;51.408;7.208;2022-08-19T10:51:05;99609.13;;;26.51;51.40
4410;BME280;2218;51.408;7.208;2022-08-19T10:54:02;99593.28;;;26.50;50.94
4410;BME280;2218;51.408;7.208;2022-08-19T10:56:30;99595.09;;;26.49;51.63
4410;BME280;2218;51.408;7.208;2022-08-19T10:59:17;99595.94;;;26.50;51.31
4410;BME280;2218;51.408;7.208;2022-08-19T11:01:46;99603.94;;;26.50;51.79
4410;BME280;2218;51.408;7.208;2022-08-19T11:04:14;99593.28;;;26.50;51.53
4410;BME280;2218;51.408;7.208;2022-08-19T11:06:44;99603.09;;;26.49;50.97
4410;BME280;2218;51.408;7.208;2022-08-19T11:09:14;99602.28;;;26.49;51.63
4410;BME280;2218;51.408;7.208;2022-08-19T11:11:42;99603.94;;;26.50;51.49
4410;BME280;2218;51.408;7.208;2022-08-19T11:14:12;99599.44;;;26.50;51.80
4410;BME280;2218;51.408;7.208;2022-08-19T11:16:41;99601.44;;;26.48;51.40
4410;BME280;2218;51.408;7.208;2022-08-19T11:19:11;99596.09;;;26.48;51.90
4410;BME280;2218;51.408;7.208;2022-08-19T11:21:43;99596.09;;;26.48;51.42
4410;BME280;2218;51.408;7.208;2022-08-19T11:24:15;99602.28;;;26.49;51.74
4410;BME280;2218;51.408;7.208;2022-08-19T11:26:44;99602.28;;;26.49;51.45
4410;BME280;2218;51.408;7.208;2022-08-19T11:29:12;99590.78;;;26.48;51.79
4410;BME280;2218;51.408;7.208;2022-08-19T11:31:43;99595.28;;;26.48;51.58
4410;BME280;2218;51.408;7.208;2022-08-19T11:34:16;99580.13;;;26.48;51.73
4410;BME280;2218;51.408;7.208;2022-08-19T11:36:45;99590.78;;;26.48;52.02
4410;BME280;2218;51.408;7.208;2022-08-19T11:39:17;99591.78;;;26.47;51.42
4410;BME280;2218;51.408;7.208;2022-08-19T11:41:45;99589.09;;;26.47;51.58
4410;BME280;2218;51.408;7.208;2022-08-19T11:44:12;99584.63;;;26.48;52.01
4410;BME280;2218;51.408;7.208;2022-08-19T11:46:41;99586.28;;;26.49;51.67
4410;BME280;2218;51.408;7.208;2022-08-19T11:49:13;99583.78;;;26.47;52.13
4410;BME280;2218;51.408;7.208;2022-08-19T11:51:42;99586.44;;;26.47;51.53
4410;BME280;2218;51.408;7.208;2022-08-19T11:54:11;99584.63;;;26.48;51.98
4410;BME280;2218;51.408;7.208;2022-08-19T11:56:40;99575.78;;;26.47;52.12
4410;BME280;2218;51.408;7.208;2022-08-19T11:59:07;99579.44;;;26.46;51.82
4410;BME280;2218;51.408;7.208;2022-08-19T12:01:35;99577.63;;;26.47;52.06
4410;BME280;2218;51.408;7.208;2022-08-19T12:04:02;99573.13;;;26.47;51.81
4410;BME280;2218;51.408;7.208;2022-08-19T12:06:33;99578.44;;;26.47;52.24
4410;BME280;2218;51.408;7.208;2022-08-19T12:09:05;99573.94;;;26.48;51.51
4410;BME280;2218;51.408;7.208;2022-08-19T12:11:33;99579.28;;;26.48;51.72
4410;BME280;2218;51.408;7.208;2022-08-19T12:14:00;99572.13;;;26.48;51.67
4410;BME280;2218;51.408;7.208;2022-08-19T12:16:29;99569.63;;;26.47;51.48
4410;BME280;2218;51.408;7.208;2022-08-19T12:18:57;99567.78;;;26.47;51.75
4410;BME280;2218;51.408;7.208;2022-08-19T12:21:32;99559.78;;;26.47;51.95
4410;BME280;2218;51.408;7.208;2022-08-19T12:24:03;99565.97;;;26.48;51.72
4410;BME280;2218;51.408;7.208;2022-08-19T12:26:31;99566.97;;;26.47;51.92
4410;BME280;2218;51.408;7.208;2022-08-19T12:28:59;99571.28;;;26.48;51.79
4410;BME280;2218;51.408;7.208;2022-08-19T12:31:27;99567.78;;;26.47;51.71
4410;BME280;2218;51.408;7.208;2022-08-19T12:33:55;99561.47;;;26.48;52.09
4410;BME280;2218;51.408;7.208;2022-08-19T12:36:22;99564.13;;;26.48;51.84
4410;BME280;2218;51.408;7.208;2022-08-19T12:38:52;99568.63;;;26.48;52.16
4410;BME280;2218;51.408;7.208;2022-08-19T12:41:20;99572.13;;;26.48;51.80
4410;BME280;2218;51.408;7.208;2022-08-19T12:43:48;99564.97;;;26.49;51.81
4410;BME280;2218;51.408;7.208;2022-08-19T12:46:17;99574.78;;;26.48;51.33
4410;BME280;2218;51.408;7.208;2022-08-19T12:48:45;99569.47;;;26.48;52.04
4410;BME280;2218;51.408;7.208;2022-08-19T12:51:15;99565.78;;;26.49;51.68
4410;BME280;2218;51.408;7.208;2022-08-19T12:53:43;99562.28;;;26.49;51.49
4410;BME280;2218;51.408;7.208;2022-08-19T12:56:12;99565.78;;;26.49;52.11
4410;BME280;2218;51.408;7.208;2022-08-19T12:58:41;99560.47;;;26.49;52.01
4410;BME280;2218;51.408;7.208;2022-08-19T13:01:13;99558.63;;;26.50;52.22
4410;BME280;2218;51.408;7.208;2022-08-19T13:03:40;99557.81;;;26.49;51.75
4410;BME280;2218;51.408;7.208;2022-08-19T13:06:09;99546.13;;;26.50;51.54
4410;BME280;2218;51.408;7.208;2022-08-19T13:08:37;99551.47;;;26.50;52.13
4410;BME280;2218;51.408;7.208;2022-08-19T13:11:13;99546.13;;;26.50;51.96
4410;BME280;2218;51.408;7.208;2022-08-19T13:13:42;99548.81;;;26.50;51.86
4410;BME280;2218;51.408;7.208;2022-08-19T13:16:11;99546.13;;;26.50;51.37
4410;BME280;2218;51.408;7.208;2022-08-19T13:18:41;99545.16;;;26.51;52.18
4410;BME280;2218;51.408;7.208;2022-08-19T13:21:10;99533.69;;;26.51;51.94
4410;BME280;2218;51.408;7.208;2022-08-19T13:23:39;99531.00;;;26.51;51.42
4410;BME280;2218;51.408;7.208;2022-08-19T13:26:09;99532.81;;;26.50;51.21
4410;BME280;2218;51.408;7.208;2022-08-19T13:28:40;99524.69;;;26.52;51.57
4410;BME280;2218;51.408;7.208;2022-08-19T13:31:28;99526.50;;;26.51;51.85
4410;BME280;2218;51.408;7.208;2022-08-19T13:34:14;99522.16;;;26.50;51.89
4410;BME280;2218;51.408;7.208;2022-08-19T13:36:42;99519.50;;;26.50;51.48